LIME/BGY METAR and TAF weather

Enter ICAO airport designator
Station Type Date Time Source
LIME METAR 2019/10/15 09:20 UTC NOAA

LIME 150920Z 11007KT 5000 BR SCT020 BKN050 18/14 Q1014 NOSIG


Station Type Date Time Source
LIME Decoded METAR 2019/10/15 09:20 UTC NOAA

Bergamo / Orio Al Serio, Italy (LIME) 45-40N 009-42E 237M
Oct 15, 2019 - 05:20 AM EDT / 2019.10.15 0920 UTC
Wind: from the ESE (110 degrees) at 8 MPH (7 KT):0
Visibility: 3 mile(s):0
Sky conditions: mostly cloudy
Weather: mist
Temperature: 64 F (18 C)
Dew Point: 57 F (14 C)
Relative Humidity: 77%
Pressure (altimeter): 29.94 in. Hg (1014 hPa)
ob: LIME 150920Z 11007KT 5000 BR SCT020 BKN050 18/14 Q1014 NOSIG
cycle: 9

Station Type Date Time Source
LIME TAF 2019/10/15 06:21 UTC NOAA

TAF LIME 150500Z 1506/1606 12008KT 4000 BR SCT020 BKN050
TEMPO 1506/1515 RA
TEMPO 1514/1523 2000 TSRA BKN012CB BKN030

Example: see airport list